Time;durP1;ratioP1;P1;durP2;ratioP2;P2;SDS_P1;SDS_P2;PMS_P1;PMS_P2;Temp;Humidity;BMP_temperature;BMP_pressure;BME280_temperature;BME280_humidity;BME280_pressure;Samples;Min_cycle;Max_cycle;Signal;HPM_P1;HPM_P2
2023/05/30 00:00:32;;;;;;;1.83;1.60;;;21.20;43.40;;;;;;5002944;28;20701;-72
2023/05/30 00:02:57;;;;;;;1.80;1.70;;;21.10;43.30;;;;;;5004816;28;20267;-71
2023/05/30 00:05:23;;;;;;;2.60;1.40;;;21.20;43.40;;;;;;4998446;28;21065;-73
2023/05/30 00:07:49;;;;;;;1.40;1.30;;;21.10;43.30;;;;;;5004277;28;20233;-72
2023/05/30 00:10:15;;;;;;;2.30;1.70;;;21.10;43.30;;;;;;5005425;28;20839;-73
2023/05/30 00:12:41;;;;;;;2.13;1.60;;;21.10;43.30;;;;;;5007859;28;20220;-72
2023/05/30 00:15:08;;;;;;;1.87;1.67;;;21.20;43.40;;;;;;5004246;28;20467;-72
2023/05/30 00:17:35;;;;;;;1.50;1.40;;;21.20;43.50;;;;;;5015265;28;21148;-71
2023/05/30 00:20:02;;;;;;;1.97;1.57;;;21.10;43.30;;;;;;4990187;28;20476;-72
2023/05/30 00:22:28;;;;;;;1.73;1.63;;;21.20;43.40;;;;;;5009495;28;21005;-71
2023/05/30 00:24:53;;;;;;;2.17;1.70;;;21.10;43.30;;;;;;4998670;28;20472;-72
2023/05/30 00:27:19;;;;;;;2.33;2.03;;;21.10;43.30;;;;;;5007351;28;20464;-72
2023/05/30 00:29:45;;;;;;;1.30;1.17;;;21.10;43.30;;;;;;5010316;28;20280;-72
2023/05/30 00:32:12;;;;;;;1.63;1.53;;;21.10;43.30;;;;;;5020443;28;20230;-72
2023/05/30 00:34:37;;;;;;;1.17;1.07;;;21.10;43.30;;;;;;5004412;28;20226;-71
2023/05/30 00:37:05;;;;;;;1.50;1.40;;;21.10;43.30;;;;;;5006644;28;20475;-72
2023/05/30 00:39:31;;;;;;;1.40;1.30;;;21.10;43.30;;;;;;5010119;28;20222;-72
2023/05/30 00:41:56;;;;;;;1.87;1.50;;;21.10;43.20;;;;;;5012033;28;20478;-72
2023/05/30 00:44:22;;;;;;;1.97;1.83;;;21.10;43.20;;;;;;5002983;28;20231;-73
2023/05/30 00:46:50;;;;;;;1.40;1.23;;;21.10;43.30;;;;;;4994786;28;20219;-73
2023/05/30 00:49:17;;;;;;;1.60;1.30;;;21.10;43.30;;;;;;4991873;28;20235;-72
2023/05/30 00:51:42;;;;;;;1.70;1.60;;;21.10;43.20;;;;;;4998531;28;20472;-72
2023/05/30 00:54:08;;;;;;;2.47;1.70;;;21.10;43.20;;;;;;5005930;28;20464;-72
2023/05/30 00:56:34;;;;;;;1.90;1.70;;;21.10;44.00;;;;;;5003552;28;20231;-72
2023/05/30 00:59:01;;;;;;;1.50;1.40;;;21.10;43.20;;;;;;5012342;28;20223;-73
2023/05/30 01:01:27;;;;;;;2.30;1.37;;;21.10;43.20;;;;;;5002944;28;20452;-71
2023/05/30 01:03:53;;;;;;;1.70;1.60;;;21.10;43.20;;;;;;5008650;28;20479;-71
2023/05/30 01:06:20;;;;;;;1.97;1.37;;;21.10;43.20;;;;;;5017815;28;20222;-74
2023/05/30 01:08:47;;;;;;;1.50;1.40;;;21.10;43.20;;;;;;5011415;28;20309;-71
2023/05/30 01:11:34;;;;;;;1.37;1.23;;;21.10;43.20;;;;;;5003864;28;20465;-72
2023/05/30 01:14:14;;;;;;;3.00;1.60;;;21.10;43.20;;;;;;5035165;28;20472;-72
2023/05/30 01:16:46;;;;;;;1.57;1.40;;;21.10;43.20;;;;;;5013237;28;20494;-72
2023/05/30 01:19:31;;;;;;;1.87;1.77;;;21.10;43.20;;;;;;5010714;28;20541;-72
2023/05/30 01:22:21;;;;;;;1.70;1.60;;;21.10;44.00;;;;;;5009110;28;20454;-71
2023/05/30 01:25:22;;;;;;;1.40;1.30;;;21.10;43.20;;;;;;5005000;28;20441;-72
2023/05/30 01:28:01;;;;;;;1.67;1.50;;;21.10;43.20;;;;;;4999002;28;20932;-72
2023/05/30 01:30:30;;;;;;;2.00;1.50;;;21.10;43.20;;;;;;4997874;28;20823;-71
2023/05/30 01:32:55;;;;;;;1.70;1.50;;;21.10;43.30;;;;;;5005227;28;21103;-71
2023/05/30 01:35:24;;;;;;;1.70;1.60;;;21.10;43.20;;;;;;5008416;28;20472;-71
2023/05/30 01:37:50;;;;;;;4.00;1.80;;;21.00;43.10;;;;;;5005676;28;20316;-72
2023/05/30 01:40:20;;;;;;;1.67;1.57;;;21.10;43.20;;;;;;5007965;28;20472;-72
2023/05/30 01:42:49;;;;;;;1.40;1.30;;;21.10;43.20;;;;;;5006356;28;20763;-72
2023/05/30 01:45:32;;;;;;;1.40;1.30;;;21.10;44.00;;;;;;5005643;28;22194;-72
2023/05/30 01:48:18;;;;;;;2.23;1.40;;;21.10;43.20;;;;;;5004233;28;20468;-72
2023/05/30 01:50:49;;;;;;;1.47;1.33;;;21.10;43.20;;;;;;4998580;28;20597;-72
2023/05/30 01:53:25;;;;;;;1.53;1.43;;;21.10;43.20;;;;;;5003964;28;20460;-72
2023/05/30 01:55:55;;;;;;;1.43;1.33;;;21.10;43.10;;;;;;5009963;28;20935;-72
2023/05/30 01:58:23;;;;;;;2.20;1.40;;;21.10;43.20;;;;;;4997793;28;20447;-72
2023/05/30 02:00:50;;;;;;;1.33;1.23;;;21.00;43.00;;;;;;5006207;28;20463;-72
2023/05/30 02:03:16;;;;;;;1.63;1.47;;;21.10;43.10;;;;;;4991883;28;21135;-72
2023/05/30 02:05:41;;;;;;;1.60;1.50;;;21.10;43.10;;;;;;5001676;28;20495;-72
2023/05/30 02:08:07;;;;;;;1.67;1.20;;;21.10;43.20;;;;;;5005740;28;20838;-72
2023/05/30 02:10:33;;;;;;;1.70;1.60;;;21.10;43.10;;;;;;5009625;28;20586;-71
2023/05/30 02:12:58;;;;;;;1.37;1.23;;;21.10;43.10;;;;;;5002595;28;20219;-72
2023/05/30 02:15:24;;;;;;;1.80;1.70;;;21.10;43.10;;;;;;5001925;28;20232;-72
2023/05/30 02:17:50;;;;;;;1.77;1.30;;;21.00;43.90;;;;;;5002924;28;20227;-72
2023/05/30 02:20:15;;;;;;;1.30;1.20;;;21.00;43.00;;;;;;4997765;28;20690;-72
2023/05/30 02:22:41;;;;;;;1.60;1.50;;;21.00;43.10;;;;;;5003070;28;20327;-72
2023/05/30 02:25:07;;;;;;;2.43;1.50;;;21.00;43.00;;;;;;4999863;28;20307;-71
2023/05/30 02:27:32;;;;;;;1.57;1.47;;;21.00;43.00;;;;;;5000937;28;20304;-72
2023/05/30 02:29:58;;;;;;;1.43;1.30;;;21.00;43.00;;;;;;5008665;28;20218;-71
2023/05/30 02:32:23;;;;;;;1.43;1.30;;;21.10;43.10;;;;;;5010680;28;20673;-73
2023/05/30 02:34:49;;;;;;;1.57;1.33;;;21.10;43.10;;;;;;5006390;28;20677;-72
2023/05/30 02:37:14;;;;;;;1.50;1.27;;;21.10;43.10;;;;;;5008139;28;20233;-72
2023/05/30 02:39:40;;;;;;;2.60;1.47;;;21.00;43.00;;;;;;5003144;28;20227;-71
2023/05/30 02:42:06;;;;;;;2.03;1.00;;;21.00;43.00;;;;;;4999282;28;20247;-72
2023/05/30 02:44:31;;;;;;;3.43;1.67;;;21.00;42.90;;;;;;4987985;28;20310;-72
2023/05/30 02:46:57;;;;;;;1.43;1.33;;;21.00;43.00;;;;;;5004246;28;20227;-72
2023/05/30 02:49:22;;;;;;;1.50;1.40;;;21.00;43.80;;;;;;5003661;28;20227;-72
2023/05/30 02:51:49;;;;;;;1.40;1.30;;;21.00;43.00;;;;;;5009362;28;22486;-71
2023/05/30 02:54:14;;;;;;;1.50;1.30;;;21.00;43.00;;;;;;5013123;28;20213;-71
2023/05/30 02:56:40;;;;;;;1.33;1.23;;;21.00;42.90;;;;;;5012072;28;20452;-72
2023/05/30 02:59:06;;;;;;;1.70;1.60;;;21.00;42.90;;;;;;5011614;28;20615;-72
2023/05/30 03:01:31;;;;;;;1.53;1.40;;;21.00;43.00;;;;;;5009476;28;20214;-72
2023/05/30 03:03:57;;;;;;;2.03;1.40;;;21.00;43.00;;;;;;5000563;28;20238;-72
2023/05/30 03:06:24;;;;;;;2.80;1.60;;;21.00;42.90;;;;;;4995670;28;20556;-72
2023/05/30 03:08:57;;;;;;;1.90;1.40;;;21.00;42.90;;;;;;5039804;28;20214;-72
2023/05/30 03:11:23;;;;;;;1.50;1.40;;;21.00;42.90;;;;;;4994968;28;20489;-71
2023/05/30 03:13:50;;;;;;;1.47;1.20;;;21.00;43.00;;;;;;5006268;28;21306;-72
2023/05/30 03:16:16;;;;;;;1.60;1.20;;;21.00;42.90;;;;;;5010343;28;20282;-72
2023/05/30 03:18:41;;;;;;;1.40;1.30;;;21.00;42.90;;;;;;4999134;28;20975;-71
2023/05/30 03:21:08;;;;;;;2.27;1.47;;;21.00;42.90;;;;;;4997526;28;20207;-72
2023/05/30 03:23:33;;;;;;;1.63;1.10;;;21.00;42.90;;;;;;5003784;28;20716;-72
2023/05/30 03:25:59;;;;;;;1.60;1.50;;;21.00;42.90;;;;;;5009623;28;20464;-72
2023/05/30 03:28:25;;;;;;;1.17;1.07;;;21.00;42.90;;;;;;5007151;28;20222;-73
2023/05/30 03:30:51;;;;;;;1.37;1.27;;;21.00;42.90;;;;;;5012826;28;20242;-73
2023/05/30 03:33:17;;;;;;;1.67;1.27;;;21.00;42.90;;;;;;5013136;28;20233;-72
2023/05/30 03:35:43;;;;;;;1.67;1.20;;;21.00;42.90;;;;;;5009023;28;20215;-73
2023/05/30 03:38:08;;;;;;;1.43;1.33;;;21.00;42.90;;;;;;4996600;28;20453;-73
2023/05/30 03:40:34;;;;;;;1.30;1.20;;;21.00;42.90;;;;;;4996351;28;20270;-72
2023/05/30 03:43:00;;;;;;;1.90;1.47;;;21.00;42.90;;;;;;4997634;28;20231;-72
2023/05/30 03:45:25;;;;;;;1.40;1.30;;;21.00;42.80;;;;;;5029430;28;20666;-73
2023/05/30 03:47:51;;;;;;;1.50;1.40;;;21.00;42.90;;;;;;5009368;28;20301;-73
2023/05/30 03:50:16;;;;;;;1.33;1.23;;;21.00;42.90;;;;;;5015507;28;21019;-73
2023/05/30 03:52:42;;;;;;;1.20;1.10;;;21.00;42.90;;;;;;5008278;28;20274;-72
2023/05/30 03:55:08;;;;;;;1.40;1.30;;;21.00;42.90;;;;;;5013166;28;20219;-72
2023/05/30 03:57:33;;;;;;;1.43;1.30;;;21.00;42.80;;;;;;4998072;28;20243;-72
2023/05/30 03:59:59;;;;;;;1.67;1.57;;;21.00;42.90;;;;;;5010107;28;20468;-72
2023/05/30 04:02:24;;;;;;;1.43;1.33;;;21.00;42.90;;;;;;5007498;28;20682;-72
2023/05/30 04:04:50;;;;;;;1.57;1.13;;;21.00;42.90;;;;;;5013627;28;20226;-74
2023/05/30 04:07:16;;;;;;;2.20;1.40;;;21.00;42.90;;;;;;5011031;28;20221;-74
2023/05/30 04:09:41;;;;;;;1.50;1.40;;;21.00;42.80;;;;;;5009483;28;20237;-73
2023/05/30 04:12:08;;;;;;;1.33;1.23;;;21.00;42.80;;;;;;5013560;28;20853;-74
2023/05/30 04:14:33;;;;;;;1.43;1.10;;;21.00;42.80;;;;;;5002579;28;20273;-72
2023/05/30 04:16:59;;;;;;;1.10;1.00;;;21.00;42.80;;;;;;5008559;28;21051;-72
2023/05/30 04:19:25;;;;;;;1.30;1.20;;;21.00;42.80;;;;;;5008523;28;20264;-72
2023/05/30 04:21:51;;;;;;;1.27;1.17;;;21.10;42.80;;;;;;5009493;28;20303;-72
2023/05/30 04:24:16;;;;;;;1.30;1.20;;;21.10;42.90;;;;;;4994477;28;20700;-72
2023/05/30 04:26:44;;;;;;;1.40;1.00;;;21.10;42.70;;;;;;5008356;28;20215;-73
2023/05/30 04:29:11;;;;;;;1.87;1.50;;;21.10;42.70;;;;;;4999311;28;20218;-72
2023/05/30 04:31:36;;;;;;;5.00;1.70;;;21.10;42.70;;;;;;5005590;28;20438;-72
2023/05/30 04:34:02;;;;;;;2.30;1.53;;;21.10;42.70;;;;;;4988010;28;20454;-72
2023/05/30 04:36:28;;;;;;;1.97;1.40;;;21.10;42.70;;;;;;5011341;28;20219;-72
2023/05/30 04:38:53;;;;;;;1.40;1.30;;;21.10;42.70;;;;;;5004822;28;20218;-72
2023/05/30 04:41:24;;;;;;;3.53;1.87;;;21.10;42.70;;;;;;5015430;28;20223;-72
2023/05/30 04:43:54;;;;;;;1.20;1.10;;;21.10;42.70;;;;;;5003211;28;20238;-72
2023/05/30 04:46:23;;;;;;;3.97;1.67;;;21.10;42.70;;;;;;5003891;28;20456;-72
2023/05/30 04:48:53;;;;;;;3.47;1.50;;;21.10;42.70;;;;;;5008370;28;20535;-72
2023/05/30 04:51:25;;;;;;;1.37;1.27;;;21.10;42.70;;;;;;5012050;28;20444;-72
2023/05/30 04:53:51;;;;;;;1.53;1.20;;;21.10;42.60;;;;;;5001460;28;22537;-72
2023/05/30 04:56:17;;;;;;;2.23;1.47;;;21.10;42.60;;;;;;4995446;28;20576;-71
2023/05/30 04:58:48;;;;;;;4.10;1.20;;;21.10;42.60;;;;;;4988442;28;20448;-71
2023/05/30 05:01:14;;;;;;;1.70;1.50;;;21.10;42.70;;;;;;4997700;28;20276;-71
2023/05/30 05:03:40;;;;;;;1.40;1.30;;;21.10;42.60;;;;;;4991314;28;20905;-71
2023/05/30 05:06:07;;;;;;;2.10;1.33;;;21.10;42.60;;;;;;5000106;28;20441;-71
2023/05/30 05:08:33;;;;;;;1.50;1.40;;;21.10;42.60;;;;;;5002200;28;21403;-71
2023/05/30 05:11:04;;;;;;;1.47;1.37;;;21.10;42.60;;;;;;5001825;28;20997;-71
2023/05/30 05:13:30;;;;;;;1.23;1.13;;;21.10;42.70;;;;;;4989086;28;20461;-71
2023/05/30 05:15:56;;;;;;;1.53;1.43;;;21.10;42.70;;;;;;4996234;28;21023;-70
2023/05/30 05:18:23;;;;;;;1.60;1.20;;;21.10;42.70;;;;;;5011002;28;20550;-71
2023/05/30 05:20:49;;;;;;;1.63;1.40;;;21.10;42.60;;;;;;5010242;28;20536;-71
2023/05/30 05:23:15;;;;;;;3.17;1.23;;;21.10;42.60;;;;;;5007882;28;20489;-71
2023/05/30 05:25:40;;;;;;;1.87;1.40;;;21.10;42.60;;;;;;4995218;28;21044;-71
2023/05/30 05:28:06;;;;;;;1.50;1.40;;;21.10;42.60;;;;;;4989792;28;20216;-71
2023/05/30 05:30:32;;;;;;;1.50;1.30;;;21.10;42.60;;;;;;4997139;28;20284;-71
2023/05/30 05:32:57;;;;;;;2.23;1.20;;;21.10;42.60;;;;;;5008717;28;20658;-71
2023/05/30 05:35:23;;;;;;;1.53;1.40;;;21.10;42.60;;;;;;5004289;28;20223;-72
2023/05/30 05:37:49;;;;;;;3.00;1.60;;;21.10;42.60;;;;;;5006766;28;20870;-72
2023/05/30 05:40:14;;;;;;;1.40;1.30;;;21.10;42.70;;;;;;5003373;28;20223;-72
2023/05/30 05:42:42;;;;;;;2.83;1.60;;;21.10;42.60;;;;;;5002217;28;20238;-72
2023/05/30 05:45:08;;;;;;;1.60;1.50;;;21.10;42.70;;;;;;4997527;28;20215;-72
2023/05/30 05:47:33;;;;;;;1.47;1.33;;;21.10;42.60;;;;;;5006780;28;20959;-72
2023/05/30 05:49:59;;;;;;;2.40;1.63;;;21.10;42.60;;;;;;4997535;28;20463;-71
2023/05/30 05:52:25;;;;;;;1.67;1.57;;;21.10;42.60;;;;;;4998564;28;20227;-72
2023/05/30 05:54:51;;;;;;;1.67;1.57;;;21.10;42.60;;;;;;5002214;28;20731;-72
2023/05/30 05:57:16;;;;;;;1.73;1.60;;;21.10;42.60;;;;;;5040046;28;20476;-72
2023/05/30 05:59:42;;;;;;;1.97;1.50;;;21.10;42.60;;;;;;5013585;28;20225;-72
2023/05/30 06:02:07;;;;;;;1.60;1.50;;;21.10;42.70;;;;;;5001961;28;20219;-72
2023/05/30 06:04:33;;;;;;;2.90;1.70;;;21.10;42.60;;;;;;5014535;28;23412;-72
2023/05/30 06:06:59;;;;;;;1.70;1.60;;;21.10;42.60;;;;;;5016198;28;20785;-75
2023/05/30 06:09:30;;;;;;;1.67;1.40;;;21.10;42.60;;;;;;5014928;28;20211;-72
2023/05/30 06:11:56;;;;;;;1.77;1.50;;;21.10;42.60;;;;;;4999965;28;20292;-73
2023/05/30 06:14:22;;;;;;;1.30;1.20;;;21.10;42.60;;;;;;5007117;28;20534;-73
2023/05/30 06:16:48;;;;;;;2.63;1.70;;;21.10;42.60;;;;;;5004383;28;21439;-73
2023/05/30 06:19:13;;;;;;;2.40;1.77;;;21.10;42.60;;;;;;5001057;28;20218;-72
2023/05/30 06:21:39;;;;;;;1.73;1.50;;;21.10;42.60;;;;;;5000236;28;20773;-72
2023/05/30 06:24:05;;;;;;;2.37;1.40;;;21.10;42.60;;;;;;4989268;28;20312;-72
2023/05/30 06:26:31;;;;;;;1.83;1.53;;;21.10;42.60;;;;;;5015500;28;20243;-72
2023/05/30 06:28:57;;;;;;;2.43;2.00;;;21.10;42.60;;;;;;5003715;28;20628;-73
2023/05/30 06:31:22;;;;;;;1.80;1.63;;;21.10;42.60;;;;;;5004961;28;20216;-71
2023/05/30 06:33:48;;;;;;;2.70;1.57;;;21.10;42.70;;;;;;5001079;28;20313;-71
2023/05/30 06:36:13;;;;;;;1.80;1.70;;;21.10;42.60;;;;;;5010157;28;20222;-71
2023/05/30 06:38:39;;;;;;;1.90;1.80;;;21.10;42.70;;;;;;5009071;28;20219;-71
2023/05/30 06:41:04;;;;;;;1.70;1.60;;;21.10;42.70;;;;;;5008087;28;20226;-71
2023/05/30 06:43:30;;;;;;;1.93;1.83;;;21.10;42.70;;;;;;5006936;28;20222;-74
2023/05/30 06:45:55;;;;;;;3.93;1.70;;;21.10;42.70;;;;;;5002573;28;20245;-73
2023/05/30 06:48:21;;;;;;;2.07;1.87;;;21.10;42.70;;;;;;4994727;28;20231;-74
2023/05/30 06:50:46;;;;;;;1.70;1.53;;;21.10;42.80;;;;;;4994441;28;20238;-73
2023/05/30 06:53:12;;;;;;;1.87;1.77;;;21.10;42.70;;;;;;4996061;28;20301;-74
2023/05/30 06:55:38;;;;;;;1.50;1.40;;;21.10;42.80;;;;;;5008169;28;20219;-73
2023/05/30 06:58:06;;;;;;;2.40;2.30;;;21.20;42.80;;;;;;4994532;28;20258;-73
2023/05/30 07:00:32;;;;;;;2.10;1.77;;;21.10;42.80;;;;;;5009863;28;20345;-73
2023/05/30 07:02:58;;;;;;;1.73;1.63;;;21.20;42.90;;;;;;5030898;28;20487;-73
2023/05/30 07:05:23;;;;;;;2.03;1.93;;;21.20;43.00;;;;;;4999589;28;20223;-74
2023/05/30 07:07:49;;;;;;;1.53;1.43;;;21.20;43.00;;;;;;4997910;28;20423;-74
2023/05/30 07:10:15;;;;;;;1.97;1.60;;;21.20;43.00;;;;;;5001151;28;20715;-74
2023/05/30 07:12:41;;;;;;;1.67;1.57;;;21.20;43.00;;;;;;5000816;28;20243;-75
2023/05/30 07:15:08;;;;;;;1.63;1.53;;;21.20;43.00;;;;;;5004625;28;20463;-76
2023/05/30 07:17:33;;;;;;;2.13;1.90;;;21.20;43.00;;;;;;5011194;28;20307;-74
2023/05/30 07:19:59;;;;;;;1.73;1.63;;;21.20;43.10;;;;;;5005427;28;20699;-74
2023/05/30 07:22:24;;;;;;;1.97;1.87;;;21.20;43.10;;;;;;5000377;28;21434;-74
2023/05/30 07:24:50;;;;;;;1.90;1.80;;;21.20;43.00;;;;;;5001564;28;20219;-74
2023/05/30 07:27:15;;;;;;;2.17;1.80;;;21.20;43.10;;;;;;5005830;28;20724;-73
2023/05/30 07:29:41;;;;;;;1.80;1.70;;;21.20;43.20;;;;;;4998609;28;20227;-73
2023/05/30 07:32:07;;;;;;;1.70;1.60;;;21.20;43.10;;;;;;5011626;28;20376;-72
2023/05/30 07:34:32;;;;;;;1.90;1.80;;;21.20;43.20;;;;;;4996993;28;20345;-72
2023/05/30 07:36:58;;;;;;;1.90;1.70;;;21.20;43.10;;;;;;5003977;28;20211;-71
2023/05/30 07:39:23;;;;;;;1.80;1.70;;;21.20;43.20;;;;;;5005538;28;20225;-73
2023/05/30 07:41:49;;;;;;;2.53;1.80;;;21.20;43.20;;;;;;4985887;28;20250;-73
2023/05/30 07:44:14;;;;;;;1.67;1.57;;;21.20;43.30;;;;;;4987602;28;20581;-73
2023/05/30 07:46:40;;;;;;;1.90;1.80;;;21.20;43.20;;;;;;4994204;28;20693;-75
2023/05/30 07:49:05;;;;;;;1.57;1.47;;;21.20;43.20;;;;;;4976781;28;20839;-73
2023/05/30 07:51:31;;;;;;;1.80;1.70;;;21.20;43.20;;;;;;4990600;28;20226;-72
2023/05/30 07:53:57;;;;;;;2.10;2.00;;;21.20;43.30;;;;;;4980938;28;20231;-72
2023/05/30 07:56:22;;;;;;;1.70;1.60;;;21.20;43.30;;;;;;4990696;28;20358;-72
2023/05/30 07:58:48;;;;;;;1.97;1.67;;;21.20;43.30;;;;;;4982039;28;20223;-72
2023/05/30 08:01:13;;;;;;;2.20;2.00;;;21.20;43.30;;;;;;4976642;28;20223;-72
2023/05/30 08:03:39;;;;;;;1.73;1.60;;;21.20;43.30;;;;;;4985840;28;20239;-73
2023/05/30 08:06:05;;;;;;;2.87;1.80;;;21.20;43.30;;;;;;5001850;28;20225;-76
2023/05/30 08:08:30;;;;;;;1.80;1.70;;;21.20;43.30;;;;;;4994801;28;20226;-73
2023/05/30 08:10:56;;;;;;;2.03;1.83;;;21.20;43.30;;;;;;4998015;28;20255;-73
2023/05/30 08:13:25;;;;;;;2.70;2.00;;;21.20;43.40;;;;;;4996433;28;20222;-72
2023/05/30 08:15:51;;;;;;;2.20;2.00;;;21.20;43.40;;;;;;4986962;28;20246;-72
2023/05/30 08:18:17;;;;;;;1.80;1.70;;;21.20;43.30;;;;;;4994118;28;22288;-71
2023/05/30 08:20:43;;;;;;;1.63;1.53;;;21.20;43.40;;;;;;4987892;28;20273;-72
2023/05/30 08:23:09;;;;;;;2.20;2.10;;;21.20;43.40;;;;;;4990378;28;21281;-71
2023/05/30 08:25:36;;;;;;;2.10;1.90;;;21.20;43.40;;;;;;4992585;28;20285;-70
2023/05/30 08:28:03;;;;;;;2.20;2.10;;;21.20;43.40;;;;;;4990891;28;20471;-71
2023/05/30 08:30:28;;;;;;;1.90;1.80;;;21.20;43.40;;;;;;4989674;28;20491;-71
2023/05/30 08:32:55;;;;;;;1.70;1.60;;;21.20;43.40;;;;;;5003707;28;20468;-70
2023/05/30 08:35:20;;;;;;;4.17;2.33;;;21.20;43.40;;;;;;4999021;28;20764;-71
2023/05/30 08:37:46;;;;;;;1.73;1.63;;;21.20;43.40;;;;;;4999985;28;20472;-71
2023/05/30 08:40:13;;;;;;;2.17;1.97;;;21.20;43.40;;;;;;5001945;28;20237;-71
2023/05/30 08:42:42;;;;;;;2.10;2.00;;;21.20;43.40;;;;;;5003967;28;20243;-69
2023/05/30 08:45:08;;;;;;;1.80;1.70;;;21.20;44.20;;;;;;4999148;28;20460;-70
2023/05/30 08:47:35;;;;;;;1.87;1.77;;;21.20;43.40;;;;;;4996831;28;21842;-70
2023/05/30 08:50:03;;;;;;;2.03;1.93;;;21.20;43.40;;;;;;5012791;28;20961;-70
2023/05/30 08:52:31;;;;;;;1.70;1.60;;;21.20;43.40;;;;;;4994756;28;20499;-69
2023/05/30 08:55:16;;;;;;;1.73;1.63;;;21.20;43.50;;;;;;5001455;28;23351;-70
2023/05/30 08:58:08;;;;;;;3.73;2.10;;;21.20;43.50;;;;;;5003191;28;20510;-72
2023/05/30 09:00:35;;;;;;;2.50;2.00;;;21.20;43.50;;;;;;5006705;28;20466;-71
2023/05/30 09:03:05;;;;;;;3.40;1.87;;;21.20;43.50;;;;;;4998473;28;20476;-69
2023/05/30 09:05:34;;;;;;;1.90;1.80;;;21.20;43.50;;;;;;4992786;28;20517;-72
2023/05/30 09:08:01;;;;;;;2.70;1.70;;;21.20;43.60;;;;;;4990514;28;20456;-69
2023/05/30 09:10:29;;;;;;;4.30;2.10;;;21.30;43.60;;;;;;5002567;28;20454;-69
2023/05/30 09:12:57;;;;;;;2.37;2.20;;;21.20;43.60;;;;;;5007505;28;20469;-72
2023/05/30 09:15:22;;;;;;;2.63;2.30;;;21.30;43.60;;;;;;4994348;28;20468;-69
2023/05/30 09:17:48;;;;;;;2.07;1.97;;;21.20;43.60;;;;;;5003684;28;20472;-69
2023/05/30 09:20:17;;;;;;;2.30;2.10;;;21.30;43.60;;;;;;5002332;28;20241;-69
2023/05/30 09:22:45;;;;;;;2.63;2.43;;;21.30;43.70;;;;;;4994647;28;20859;-69
2023/05/30 09:25:17;;;;;;;2.30;2.10;;;21.30;43.60;;;;;;4999817;28;20480;-69
2023/05/30 09:27:50;;;;;;;2.07;1.90;;;21.30;43.70;;;;;;5007944;28;20587;-69
2023/05/30 09:30:16;;;;;;;2.40;2.30;;;21.30;43.70;;;;;;4996796;28;20504;-69
2023/05/30 09:32:58;;;;;;;1.80;1.70;;;21.30;43.70;;;;;;4986211;28;20588;-69
2023/05/30 09:35:25;;;;;;;3.40;2.60;;;21.30;43.60;;;;;;5000379;28;20471;-69
2023/05/30 09:37:50;;;;;;;2.10;2.00;;;21.30;43.70;;;;;;4997122;28;20467;-69
2023/05/30 09:40:16;;;;;;;2.20;2.10;;;21.30;43.60;;;;;;4999764;28;20480;-69
2023/05/30 09:42:51;;;;;;;3.00;2.80;;;21.30;43.60;;;;;;5000350;28;21629;-69
2023/05/30 09:45:22;;;;;;;1.73;1.63;;;21.30;43.60;;;;;;5005206;28;20697;-69
2023/05/30 09:47:50;;;;;;;2.37;2.27;;;21.30;43.60;;;;;;5000653;28;20885;-69
2023/05/30 09:50:21;;;;;;;2.50;2.10;;;21.30;43.60;;;;;;5002551;28;20530;-69
2023/05/30 09:52:51;;;;;;;2.50;2.30;;;21.30;43.60;;;;;;5006784;28;20582;-69
2023/05/30 09:55:18;;;;;;;2.23;2.13;;;21.30;43.60;;;;;;5003098;28;20480;-69
2023/05/30 09:57:51;;;;;;;2.40;2.20;;;21.30;43.60;;;;;;5008120;28;20482;-69
2023/05/30 10:00:23;;;;;;;2.00;1.90;;;21.30;43.50;;;;;;5004029;28;20480;-69
2023/05/30 10:02:54;;;;;;;2.23;2.13;;;21.30;43.50;;;;;;5000735;28;20499;-70
2023/05/30 10:05:21;;;;;;;2.30;2.20;;;21.30;43.50;;;;;;4999407;28;20476;-69
2023/05/30 10:07:48;;;;;;;2.60;2.37;;;21.30;43.50;;;;;;4995905;28;20489;-69
2023/05/30 10:10:15;;;;;;;2.27;2.10;;;21.30;43.50;;;;;;4995454;28;20488;-69
2023/05/30 10:12:48;;;;;;;2.37;2.17;;;21.30;43.50;;;;;;4994524;28;22107;-70
2023/05/30 10:15:14;;;;;;;2.20;2.10;;;21.30;43.50;;;;;;4995043;28;20528;-68
2023/05/30 10:17:46;;;;;;;2.10;1.90;;;21.30;43.50;;;;;;4996366;28;20469;-67
2023/05/30 10:20:13;;;;;;;4.07;2.87;;;21.30;43.50;;;;;;4997776;28;20231;-67
2023/05/30 10:22:42;;;;;;;2.53;2.40;;;21.30;43.60;;;;;;4993575;28;21070;-67
2023/05/30 10:25:08;;;;;;;2.17;2.07;;;21.30;43.50;;;;;;4991098;28;20487;-67
2023/05/30 10:27:42;;;;;;;2.50;2.30;;;21.30;43.50;;;;;;5006414;28;21028;-67
2023/05/30 10:30:09;;;;;;;2.37;2.17;;;21.30;43.60;;;;;;4998094;28;20484;-68
2023/05/30 10:32:41;;;;;;;2.20;2.10;;;21.30;43.50;;;;;;5005969;28;21086;-68
2023/05/30 10:35:13;;;;;;;2.17;2.00;;;21.30;43.50;;;;;;4982756;28;20550;-67
2023/05/30 10:37:39;;;;;;;2.53;2.33;;;21.30;43.50;;;;;;4983270;28;20483;-67
2023/05/30 10:40:30;;;;;;;2.00;1.90;;;21.30;43.50;;;;;;4981434;28;20479;-68
2023/05/30 10:43:36;;;;;;;2.10;2.00;;;21.30;43.50;;;;;;4985188;28;20480;-68
2023/05/30 10:46:25;;;;;;;2.20;2.10;;;21.30;43.40;;;;;;4986436;28;20531;-68
2023/05/30 10:49:04;;;;;;;2.27;2.10;;;21.30;43.50;;;;;;4986320;28;20956;-69
2023/05/30 10:51:30;;;;;;;2.40;2.30;;;21.30;43.50;;;;;;4991497;28;20976;-67
2023/05/30 10:53:59;;;;;;;4.90;3.20;;;21.40;43.90;;;;;;4986357;28;20468;-67
2023/05/30 10:56:34;;;;;;;2.50;2.40;;;21.40;43.70;;;;;;5001816;28;20546;-68
2023/05/30 10:59:02;;;;;;;3.20;2.50;;;21.40;43.60;;;;;;4987628;28;20463;-68
2023/05/30 11:01:30;;;;;;;2.73;2.53;;;21.40;43.60;;;;;;4995887;28;20465;-68
2023/05/30 11:04:03;;;;;;;2.80;2.60;;;21.40;43.60;;;;;;4983159;28;20518;-68
2023/05/30 11:06:38;;;;;;;2.00;1.90;;;21.40;43.60;;;;;;4997228;28;20491;-68
2023/05/30 11:09:14;;;;;;;2.50;2.30;;;21.40;43.60;;;;;;4993884;28;20460;-68
2023/05/30 11:11:41;;;;;;;2.20;2.10;;;21.40;43.60;;;;;;5003285;28;20974;-67
2023/05/30 11:14:08;;;;;;;2.53;2.33;;;21.40;43.60;;;;;;5004083;28;20985;-68
2023/05/30 11:16:58;;;;;;;2.40;2.30;;;21.40;43.70;;;;;;5004674;28;20461;-68
2023/05/30 11:19:33;;;;;;;2.40;2.20;;;21.40;43.60;;;;;;4988639;28;20479;-68
2023/05/30 11:22:00;;;;;;;1.87;1.77;;;21.40;43.70;;;;;;5004656;28;20510;-68
2023/05/30 11:24:28;;;;;;;2.87;2.60;;;21.40;43.60;;;;;;5006207;28;20463;-67
2023/05/30 11:26:54;;;;;;;2.43;2.23;;;21.40;43.60;;;;;;5000580;28;22440;-68
2023/05/30 11:29:35;;;;;;;2.50;2.40;;;21.40;43.60;;;;;;4985859;28;20450;-67
2023/05/30 11:32:01;;;;;;;2.83;2.60;;;21.40;43.60;;;;;;4987190;28;20986;-69
2023/05/30 11:34:27;;;;;;;2.27;2.17;;;21.40;43.60;;;;;;4985391;28;20546;-67
2023/05/30 11:36:55;;;;;;;3.40;2.23;;;21.40;43.60;;;;;;4996506;28;20604;-68
2023/05/30 11:39:22;;;;;;;2.73;2.53;;;21.40;43.60;;;;;;4991076;28;20460;-68
2023/05/30 11:41:48;;;;;;;2.20;2.00;;;21.40;43.60;;;;;;4995429;28;20606;-69
2023/05/30 11:44:14;;;;;;;2.40;2.20;;;21.40;43.60;;;;;;4985913;28;20569;-68
2023/05/30 11:46:41;;;;;;;2.53;2.43;;;21.40;43.60;;;;;;4997562;28;20974;-69
2023/05/30 11:49:07;;;;;;;2.73;2.50;;;21.40;43.60;;;;;;4988324;28;20473;-70
2023/05/30 11:51:33;;;;;;;2.50;2.37;;;21.40;43.60;;;;;;4994725;28;20467;-67
2023/05/30 11:53:59;;;;;;;2.93;2.57;;;21.40;43.60;;;;;;4996064;28;20230;-69
2023/05/30 11:56:31;;;;;;;2.40;2.30;;;21.40;43.60;;;;;;4995380;28;20460;-69
2023/05/30 11:58:57;;;;;;;2.50;2.30;;;21.40;43.60;;;;;;4993222;28;20466;-69
2023/05/30 12:01:23;;;;;;;2.53;2.07;;;21.40;43.60;;;;;;4989701;28;20550;-68
2023/05/30 12:03:49;;;;;;;2.60;2.50;;;21.40;43.70;;;;;;4989448;28;20492;-68
2023/05/30 12:06:15;;;;;;;3.73;2.40;;;21.40;43.60;;;;;;4983364;28;20472;-68
2023/05/30 12:08:47;;;;;;;2.40;2.30;;;21.40;43.70;;;;;;4984399;28;20560;-68
2023/05/30 12:11:13;;;;;;;2.20;2.10;;;21.40;43.50;;;;;;4991426;28;20854;-68
2023/05/30 12:13:39;;;;;;;2.80;2.60;;;21.40;43.50;;;;;;4999086;28;20476;-67
2023/05/30 12:16:05;;;;;;;2.40;2.17;;;21.40;43.50;;;;;;4996277;28;20601;-69
2023/05/30 12:18:35;;;;;;;2.97;2.20;;;21.40;43.40;;;;;;5012150;28;20466;-68
2023/05/30 12:21:01;;;;;;;2.40;2.30;;;21.40;43.50;;;;;;4999185;28;20488;-68
2023/05/30 12:23:27;;;;;;;2.77;2.57;;;21.40;43.50;;;;;;5006577;28;20993;-68
2023/05/30 12:25:53;;;;;;;2.90;2.70;;;21.40;43.50;;;;;;5033035;28;20471;-68
2023/05/30 12:28:19;;;;;;;2.43;2.33;;;21.40;43.50;;;;;;5009453;28;21491;-68
2023/05/30 12:30:45;;;;;;;3.43;3.10;;;21.40;43.50;;;;;;5001112;28;20465;-68
2023/05/30 12:33:19;;;;;;;2.60;2.50;;;21.40;43.50;;;;;;5006853;28;20308;-68
2023/05/30 12:35:55;;;;;;;2.40;2.30;;;21.50;43.50;;;;;;4999981;28;20998;-68
2023/05/30 12:38:21;;;;;;;3.03;2.73;;;21.50;43.50;;;;;;5010950;28;20454;-68
2023/05/30 12:40:50;;;;;;;2.10;2.00;;;21.40;43.60;;;;;;5010567;28;21085;-68
2023/05/30 12:43:25;;;;;;;2.43;2.23;;;21.50;43.60;;;;;;4999566;28;20480;-68
2023/05/30 12:45:51;;;;;;;2.70;2.20;;;21.50;43.50;;;;;;5007185;28;20459;-68
2023/05/30 12:48:16;;;;;;;2.80;2.60;;;21.50;43.60;;;;;;5002399;28;20477;-68
2023/05/30 12:50:42;;;;;;;3.30;2.70;;;21.50;43.50;;;;;;5013721;28;20338;-69